sensor_id;sensor_type;location;lat;lon;timestamp;temperature;humidity
8820;DHT22;4446;50.876;4.736;2023-08-08T00:00:36;12.30;99.90
8820;DHT22;4446;50.876;4.736;2023-08-08T00:03:04;12.30;99.90
8820;DHT22;4446;50.876;4.736;2023-08-08T00:05:31;12.20;99.90
8820;DHT22;4446;50.876;4.736;2023-08-08T00:07:58;12.10;99.90
8820;DHT22;4446;50.876;4.736;2023-08-08T00:10:25;12.10;99.90
8820;DHT22;4446;50.876;4.736;2023-08-08T00:12:52;12.10;99.90
8820;DHT22;4446;50.876;4.736;2023-08-08T00:15:20;12.10;99.90
8820;DHT22;4446;50.876;4.736;2023-08-08T00:17:47;12.10;99.90
8820;DHT22;4446;50.876;4.736;2023-08-08T00:20:14;12.20;99.90
8820;DHT22;4446;50.876;4.736;2023-08-08T00:22:42;12.20;99.90
8820;DHT22;4446;50.876;4.736;2023-08-08T00:25:09;12.20;99.90
8820;DHT22;4446;50.876;4.736;2023-08-08T00:27:36;12.20;99.90
8820;DHT22;4446;50.876;4.736;2023-08-08T00:30:08;12.30;99.90
8820;DHT22;4446;50.876;4.736;2023-08-08T00:32:37;12.20;99.90
8820;DHT22;4446;50.876;4.736;2023-08-08T00:35:05;12.20;99.90
8820;DHT22;4446;50.876;4.736;2023-08-08T00:37:32;12.20;99.90
8820;DHT22;4446;50.876;4.736;2023-08-08T00:39:59;12.10;99.90
8820;DHT22;4446;50.876;4.736;2023-08-08T00:42:26;12.10;99.90
8820;DHT22;4446;50.876;4.736;2023-08-08T00:44:53;12.20;99.90
8820;DHT22;4446;50.876;4.736;2023-08-08T00:47:20;12.20;99.90
8820;DHT22;4446;50.876;4.736;2023-08-08T00:49:49;12.30;99.90
8820;DHT22;4446;50.876;4.736;2023-08-08T00:52:16;12.30;99.90
8820;DHT22;4446;50.876;4.736;2023-08-08T00:54:43;12.20;99.90
8820;DHT22;4446;50.876;4.736;2023-08-08T00:57:10;12.20;99.90
8820;DHT22;4446;50.876;4.736;2023-08-08T00:59:37;12.30;99.90
8820;DHT22;4446;50.876;4.736;2023-08-08T01:02:05;12.40;99.90
8820;DHT22;4446;50.876;4.736;2023-08-08T01:04:32;12.40;99.90
8820;DHT22;4446;50.876;4.736;2023-08-08T01:07:08;12.30;99.90
8820;DHT22;4446;50.876;4.736;2023-08-08T01:09:43;12.30;99.90
8820;DHT22;4446;50.876;4.736;2023-08-08T01:12:12;12.30;99.90
8820;DHT22;4446;50.876;4.736;2023-08-08T01:14:42;12.30;99.90
8820;DHT22;4446;50.876;4.736;2023-08-08T01:17:11;12.30;99.90
8820;DHT22;4446;50.876;4.736;2023-08-08T01:19:38;12.30;99.90
8820;DHT22;4446;50.876;4.736;2023-08-08T01:22:16;12.30;99.90
8820;DHT22;4446;50.876;4.736;2023-08-08T01:24:49;12.30;99.90
8820;DHT22;4446;50.876;4.736;2023-08-08T01:27:16;12.30;99.90
8820;DHT22;4446;50.876;4.736;2023-08-08T01:29:43;12.40;99.90
8820;DHT22;4446;50.876;4.736;2023-08-08T01:32:10;12.40;99.90
8820;DHT22;4446;50.876;4.736;2023-08-08T01:34:38;12.30;99.90
8820;DHT22;4446;50.876;4.736;2023-08-08T01:37:09;12.30;99.90
8820;DHT22;4446;50.876;4.736;2023-08-08T01:39:38;12.40;99.90
8820;DHT22;4446;50.876;4.736;2023-08-08T01:42:08;12.40;99.90
8820;DHT22;4446;50.876;4.736;2023-08-08T01:44:36;12.30;99.90
8820;DHT22;4446;50.876;4.736;2023-08-08T01:47:05;12.30;99.90
8820;DHT22;4446;50.876;4.736;2023-08-08T01:49:33;12.20;99.90
8820;DHT22;4446;50.876;4.736;2023-08-08T01:52:00;12.30;99.90
8820;DHT22;4446;50.876;4.736;2023-08-08T01:54:27;12.30;99.90
8820;DHT22;4446;50.876;4.736;2023-08-08T01:56:54;12.40;99.90
8820;DHT22;4446;50.876;4.736;2023-08-08T01:59:23;12.40;99.90
8820;DHT22;4446;50.876;4.736;2023-08-08T02:01:50;12.40;99.90
8820;DHT22;4446;50.876;4.736;2023-08-08T02:04:17;12.40;99.90
8820;DHT22;4446;50.876;4.736;2023-08-08T02:06:44;12.40;99.90
8820;DHT22;4446;50.876;4.736;2023-08-08T02:09:11;12.30;99.90
8820;DHT22;4446;50.876;4.736;2023-08-08T02:11:40;12.30;99.90
8820;DHT22;4446;50.876;4.736;2023-08-08T02:14:07;12.40;99.90
8820;DHT22;4446;50.876;4.736;2023-08-08T02:16:36;12.40;99.90
8820;DHT22;4446;50.876;4.736;2023-08-08T02:19:03;12.30;99.90
8820;DHT22;4446;50.876;4.736;2023-08-08T02:21:30;12.20;99.90
8820;DHT22;4446;50.876;4.736;2023-08-08T02:23:57;12.30;99.90
8820;DHT22;4446;50.876;4.736;2023-08-08T02:26:25;12.30;99.90
8820;DHT22;4446;50.876;4.736;2023-08-08T02:28:52;12.30;99.90
8820;DHT22;4446;50.876;4.736;2023-08-08T02:31:19;12.40;99.90
8820;DHT22;4446;50.876;4.736;2023-08-08T02:33:49;12.50;99.90
8820;DHT22;4446;50.876;4.736;2023-08-08T02:36:17;12.40;99.90
8820;DHT22;4446;50.876;4.736;2023-08-08T02:38:44;12.40;99.90
8820;DHT22;4446;50.876;4.736;2023-08-08T02:41:11;12.40;99.90
8820;DHT22;4446;50.876;4.736;2023-08-08T02:43:38;12.50;99.90
8820;DHT22;4446;50.876;4.736;2023-08-08T02:46:05;12.40;99.90
8820;DHT22;4446;50.876;4.736;2023-08-08T02:48:32;12.40;99.90
8820;DHT22;4446;50.876;4.736;2023-08-08T02:51:01;12.40;99.90
8820;DHT22;4446;50.876;4.736;2023-08-08T02:53:28;12.30;99.90
8820;DHT22;4446;50.876;4.736;2023-08-08T02:55:55;12.30;99.90
8820;DHT22;4446;50.876;4.736;2023-08-08T02:58:22;12.30;99.90
8820;DHT22;4446;50.876;4.736;2023-08-08T03:00:49;12.30;99.90
8820;DHT22;4446;50.876;4.736;2023-08-08T03:03:16;12.40;99.90
8820;DHT22;4446;50.876;4.736;2023-08-08T03:05:44;12.40;99.90
8820;DHT22;4446;50.876;4.736;2023-08-08T03:08:12;12.30;99.90
8820;DHT22;4446;50.876;4.736;2023-08-08T03:10:39;12.40;99.90
8820;DHT22;4446;50.876;4.736;2023-08-08T03:13:07;12.40;99.90
8820;DHT22;4446;50.876;4.736;2023-08-08T03:15:34;12.40;99.90
8820;DHT22;4446;50.876;4.736;2023-08-08T03:18:02;12.40;99.90
8820;DHT22;4446;50.876;4.736;2023-08-08T03:20:29;12.50;99.90
8820;DHT22;4446;50.876;4.736;2023-08-08T03:22:56;12.50;99.90
8820;DHT22;4446;50.876;4.736;2023-08-08T03:25:25;12.40;99.90
8820;DHT22;4446;50.876;4.736;2023-08-08T03:27:52;12.50;99.90
8820;DHT22;4446;50.876;4.736;2023-08-08T03:30:19;12.50;99.90
8820;DHT22;4446;50.876;4.736;2023-08-08T03:32:46;12.40;99.90
8820;DHT22;4446;50.876;4.736;2023-08-08T03:35:14;12.40;99.90
8820;DHT22;4446;50.876;4.736;2023-08-08T03:37:41;12.30;99.90
8820;DHT22;4446;50.876;4.736;2023-08-08T03:40:09;12.30;99.90
8820;DHT22;4446;50.876;4.736;2023-08-08T03:42:37;12.20;99.90
8820;DHT22;4446;50.876;4.736;2023-08-08T03:45:05;12.20;99.90
8820;DHT22;4446;50.876;4.736;2023-08-08T03:47:33;12.30;99.90
8820;DHT22;4446;50.876;4.736;2023-08-08T03:50:00;12.20;99.90
8820;DHT22;4446;50.876;4.736;2023-08-08T03:52:27;12.20;99.90
8820;DHT22;4446;50.876;4.736;2023-08-08T03:54:54;12.10;99.90
8820;DHT22;4446;50.876;4.736;2023-08-08T03:57:21;12.10;99.90
8820;DHT22;4446;50.876;4.736;2023-08-08T03:59:50;12.20;99.90
8820;DHT22;4446;50.876;4.736;2023-08-08T04:02:17;12.10;99.90
8820;DHT22;4446;50.876;4.736;2023-08-08T04:04:44;12.10;99.90
8820;DHT22;4446;50.876;4.736;2023-08-08T04:07:11;12.00;99.90
8820;DHT22;4446;50.876;4.736;2023-08-08T04:09:38;12.00;99.90
8820;DHT22;4446;50.876;4.736;2023-08-08T04:12:06;12.00;99.90
8820;DHT22;4446;50.876;4.736;2023-08-08T04:14:33;12.00;99.90
8820;DHT22;4446;50.876;4.736;2023-08-08T04:17:01;12.00;99.90
8820;DHT22;4446;50.876;4.736;2023-08-08T04:19:30;12.00;99.90
8820;DHT22;4446;50.876;4.736;2023-08-08T04:21:57;11.90;99.90
8820;DHT22;4446;50.876;4.736;2023-08-08T04:24:25;11.90;99.90
8820;DHT22;4446;50.876;4.736;2023-08-08T04:26:52;12.00;99.90
8820;DHT22;4446;50.876;4.736;2023-08-08T04:29:19;12.10;99.90
8820;DHT22;4446;50.876;4.736;2023-08-08T04:31:46;12.10;99.90
8820;DHT22;4446;50.876;4.736;2023-08-08T04:34:14;12.00;99.90
8820;DHT22;4446;50.876;4.736;2023-08-08T04:36:42;12.00;99.90
8820;DHT22;4446;50.876;4.736;2023-08-08T04:39:09;12.10;99.90
8820;DHT22;4446;50.876;4.736;2023-08-08T04:41:36;12.10;99.90
8820;DHT22;4446;50.876;4.736;2023-08-08T04:44:04;12.00;99.90
8820;DHT22;4446;50.876;4.736;2023-08-08T04:46:31;12.00;99.90
8820;DHT22;4446;50.876;4.736;2023-08-08T04:48:58;12.10;99.90
8820;DHT22;4446;50.876;4.736;2023-08-08T04:51:26;12.10;99.90
8820;DHT22;4446;50.876;4.736;2023-08-08T04:53:53;12.10;99.90
8820;DHT22;4446;50.876;4.736;2023-08-08T04:56:20;12.20;99.90
8820;DHT22;4446;50.876;4.736;2023-08-08T04:58:47;12.20;99.90
8820;DHT22;4446;50.876;4.736;2023-08-08T05:01:14;12.30;99.90
8820;DHT22;4446;50.876;4.736;2023-08-08T05:03:43;12.30;99.90
8820;DHT22;4446;50.876;4.736;2023-08-08T05:06:10;12.30;99.90
8820;DHT22;4446;50.876;4.736;2023-08-08T05:08:38;12.40;99.90
8820;DHT22;4446;50.876;4.736;2023-08-08T05:11:05;12.40;99.90
8820;DHT22;4446;50.876;4.736;2023-08-08T05:13:32;12.40;99.90
8820;DHT22;4446;50.876;4.736;2023-08-08T05:15:59;12.50;99.90
8820;DHT22;4446;50.876;4.736;2023-08-08T05:18:27;12.50;99.90
8820;DHT22;4446;50.876;4.736;2023-08-08T05:20:53;12.50;99.90
8820;DHT22;4446;50.876;4.736;2023-08-08T05:23:20;12.50;99.90
8820;DHT22;4446;50.876;4.736;2023-08-08T05:25:49;12.60;99.90
8820;DHT22;4446;50.876;4.736;2023-08-08T05:28:16;12.60;99.90
8820;DHT22;4446;50.876;4.736;2023-08-08T05:30:43;12.70;99.90
8820;DHT22;4446;50.876;4.736;2023-08-08T05:33:10;12.70;99.90
8820;DHT22;4446;50.876;4.736;2023-08-08T05:35:37;12.80;99.90
8820;DHT22;4446;50.876;4.736;2023-08-08T05:38:04;12.80;99.90
8820;DHT22;4446;50.876;4.736;2023-08-08T05:40:33;12.80;99.90
8820;DHT22;4446;50.876;4.736;2023-08-08T05:43:02;12.90;99.90
8820;DHT22;4446;50.876;4.736;2023-08-08T05:45:29;12.90;99.90
8820;DHT22;4446;50.876;4.736;2023-08-08T05:47:56;13.00;99.90
8820;DHT22;4446;50.876;4.736;2023-08-08T05:50:23;13.10;99.90
8820;DHT22;4446;50.876;4.736;2023-08-08T05:52:50;13.10;99.90
8820;DHT22;4446;50.876;4.736;2023-08-08T05:55:17;13.20;99.90
8820;DHT22;4446;50.876;4.736;2023-08-08T05:57:44;13.20;99.90
8820;DHT22;4446;50.876;4.736;2023-08-08T06:00:14;13.30;99.90
8820;DHT22;4446;50.876;4.736;2023-08-08T06:02:41;13.40;99.90
8820;DHT22;4446;50.876;4.736;2023-08-08T06:05:08;13.60;99.90
8820;DHT22;4446;50.876;4.736;2023-08-08T06:07:35;13.80;99.90
8820;DHT22;4446;50.876;4.736;2023-08-08T06:10:03;14.10;99.90
8820;DHT22;4446;50.876;4.736;2023-08-08T06:12:30;14.20;99.90
8820;DHT22;4446;50.876;4.736;2023-08-08T06:14:57;14.40;99.90
8820;DHT22;4446;50.876;4.736;2023-08-08T06:17:25;14.50;99.90
8820;DHT22;4446;50.876;4.736;2023-08-08T06:19:52;14.50;99.90
8820;DHT22;4446;50.876;4.736;2023-08-08T06:22:22;14.50;99.90
8820;DHT22;4446;50.876;4.736;2023-08-08T06:24:49;14.40;99.90
8820;DHT22;4446;50.876;4.736;2023-08-08T06:27:16;14.40;99.90
8820;DHT22;4446;50.876;4.736;2023-08-08T06:29:43;14.40;99.90
8820;DHT22;4446;50.876;4.736;2023-08-08T06:32:10;14.40;99.90
8820;DHT22;4446;50.876;4.736;2023-08-08T06:34:39;14.50;99.90
8820;DHT22;4446;50.876;4.736;2023-08-08T06:37:06;14.60;99.90
8820;DHT22;4446;50.876;4.736;2023-08-08T06:39:33;14.70;99.90
8820;DHT22;4446;50.876;4.736;2023-08-08T06:42:00;14.80;99.90
8820;DHT22;4446;50.876;4.736;2023-08-08T06:44:27;14.90;99.90
8820;DHT22;4446;50.876;4.736;2023-08-08T06:46:54;15.00;99.90
8820;DHT22;4446;50.876;4.736;2023-08-08T06:49:21;15.10;99.90
8820;DHT22;4446;50.876;4.736;2023-08-08T06:51:50;15.10;99.90
8820;DHT22;4446;50.876;4.736;2023-08-08T06:54:17;15.20;99.90
8820;DHT22;4446;50.876;4.736;2023-08-08T06:56:44;15.40;99.90
8820;DHT22;4446;50.876;4.736;2023-08-08T06:59:11;15.50;99.90
8820;DHT22;4446;50.876;4.736;2023-08-08T07:01:38;15.70;99.90
8820;DHT22;4446;50.876;4.736;2023-08-08T07:04:06;15.90;99.90
8820;DHT22;4446;50.876;4.736;2023-08-08T07:06:33;16.10;99.90
8820;DHT22;4446;50.876;4.736;2023-08-08T07:09:01;16.30;99.90
8820;DHT22;4446;50.876;4.736;2023-08-08T07:11:29;16.40;99.90
8820;DHT22;4446;50.876;4.736;2023-08-08T07:13:56;16.50;99.90
8820;DHT22;4446;50.876;4.736;2023-08-08T07:16:23;16.60;99.90
8820;DHT22;4446;50.876;4.736;2023-08-08T07:18:50;16.70;99.90
8820;DHT22;4446;50.876;4.736;2023-08-08T07:21:17;16.90;99.90
8820;DHT22;4446;50.876;4.736;2023-08-08T07:23:44;17.10;99.90
8820;DHT22;4446;50.876;4.736;2023-08-08T07:26:13;17.20;99.90
8820;DHT22;4446;50.876;4.736;2023-08-08T07:28:40;17.30;99.90
8820;DHT22;4446;50.876;4.736;2023-08-08T07:31:07;17.40;99.90
8820;DHT22;4446;50.876;4.736;2023-08-08T07:33:34;17.40;99.90
8820;DHT22;4446;50.876;4.736;2023-08-08T07:36:02;17.50;99.90
8820;DHT22;4446;50.876;4.736;2023-08-08T07:38:29;17.60;99.90
8820;DHT22;4446;50.876;4.736;2023-08-08T07:40:56;17.60;99.90
8820;DHT22;4446;50.876;4.736;2023-08-08T07:43:24;17.60;99.90
8820;DHT22;4446;50.876;4.736;2023-08-08T07:45:53;17.80;99.90
8820;DHT22;4446;50.876;4.736;2023-08-08T07:48:20;17.90;99.90
8820;DHT22;4446;50.876;4.736;2023-08-08T07:50:47;17.80;99.90
8820;DHT22;4446;50.876;4.736;2023-08-08T07:53:14;17.80;99.90
8820;DHT22;4446;50.876;4.736;2023-08-08T07:55:41;17.90;99.90
8820;DHT22;4446;50.876;4.736;2023-08-08T07:58:08;17.90;99.90
8820;DHT22;4446;50.876;4.736;2023-08-08T08:00:36;17.90;99.90
8820;DHT22;4446;50.876;4.736;2023-08-08T08:03:05;17.90;99.90
8820;DHT22;4446;50.876;4.736;2023-08-08T08:05:32;17.90;99.90
8820;DHT22;4446;50.876;4.736;2023-08-08T08:08:00;18.00;99.90
8820;DHT22;4446;50.876;4.736;2023-08-08T08:10:27;18.10;99.90
8820;DHT22;4446;50.876;4.736;2023-08-08T08:12:54;18.20;99.90
8820;DHT22;4446;50.876;4.736;2023-08-08T08:15:23;18.30;99.90
8820;DHT22;4446;50.876;4.736;2023-08-08T08:17:52;18.20;99.90
8820;DHT22;4446;50.876;4.736;2023-08-08T08:20:19;18.20;99.90
8820;DHT22;4446;50.876;4.736;2023-08-08T08:22:46;18.10;99.90
8820;DHT22;4446;50.876;4.736;2023-08-08T08:25:13;18.10;99.90
8820;DHT22;4446;50.876;4.736;2023-08-08T08:27:40;18.10;99.90
8820;DHT22;4446;50.876;4.736;2023-08-08T08:30:08;18.10;99.90
8820;DHT22;4446;50.876;4.736;2023-08-08T08:32:36;18.30;99.90
8820;DHT22;4446;50.876;4.736;2023-08-08T08:35:05;18.30;99.90
8820;DHT22;4446;50.876;4.736;2023-08-08T08:37:33;18.40;99.90
8820;DHT22;4446;50.876;4.736;2023-08-08T08:40:01;18.40;99.90
8820;DHT22;4446;50.876;4.736;2023-08-08T08:42:31;18.40;99.90
8820;DHT22;4446;50.876;4.736;2023-08-08T08:44:59;18.60;99.90
8820;DHT22;4446;50.876;4.736;2023-08-08T08:47:30;18.60;99.90
8820;DHT22;4446;50.876;4.736;2023-08-08T08:49:58;18.70;99.90
8820;DHT22;4446;50.876;4.736;2023-08-08T08:52:28;18.80;99.90
8820;DHT22;4446;50.876;4.736;2023-08-08T08:54:55;18.80;99.90
8820;DHT22;4446;50.876;4.736;2023-08-08T08:57:22;18.90;99.90
8820;DHT22;4446;50.876;4.736;2023-08-08T08:59:50;18.90;99.90
8820;DHT22;4446;50.876;4.736;2023-08-08T09:02:18;19.10;99.90
8820;DHT22;4446;50.876;4.736;2023-08-08T09:04:45;19.10;99.90
8820;DHT22;4446;50.876;4.736;2023-08-08T09:07:13;19.10;99.90
8820;DHT22;4446;50.876;4.736;2023-08-08T09:09:44;19.10;99.90
8820;DHT22;4446;50.876;4.736;2023-08-08T09:12:11;19.30;99.90
8820;DHT22;4446;50.876;4.736;2023-08-08T09:14:40;19.30;99.90
8820;DHT22;4446;50.876;4.736;2023-08-08T09:17:10;19.20;99.90
8820;DHT22;4446;50.876;4.736;2023-08-08T09:19:42;19.10;99.90
8820;DHT22;4446;50.876;4.736;2023-08-08T09:22:09;19.10;99.90
8820;DHT22;4446;50.876;4.736;2023-08-08T09:24:38;19.20;99.90
8820;DHT22;4446;50.876;4.736;2023-08-08T09:27:08;19.10;99.90
8820;DHT22;4446;50.876;4.736;2023-08-08T09:29:35;19.20;99.90
8820;DHT22;4446;50.876;4.736;2023-08-08T09:32:03;19.30;99.90
8820;DHT22;4446;50.876;4.736;2023-08-08T09:34:31;19.50;99.90
8820;DHT22;4446;50.876;4.736;2023-08-08T09:36:58;19.30;99.90
8820;DHT22;4446;50.876;4.736;2023-08-08T09:39:25;19.20;99.90
8820;DHT22;4446;50.876;4.736;2023-08-08T09:41:52;19.40;99.90
8820;DHT22;4446;50.876;4.736;2023-08-08T09:44:25;19.30;99.90
8820;DHT22;4446;50.876;4.736;2023-08-08T09:46:55;19.50;99.90
8820;DHT22;4446;50.876;4.736;2023-08-08T09:49:22;19.60;99.90
8820;DHT22;4446;50.876;4.736;2023-08-08T09:51:50;19.60;99.90
8820;DHT22;4446;50.876;4.736;2023-08-08T09:54:17;19.80;99.90
8820;DHT22;4446;50.876;4.736;2023-08-08T09:56:44;19.90;99.90
8820;DHT22;4446;50.876;4.736;2023-08-08T09:59:12;19.80;99.90
8820;DHT22;4446;50.876;4.736;2023-08-08T10:01:41;19.90;99.90
8820;DHT22;4446;50.876;4.736;2023-08-08T10:04:09;19.90;99.90
8820;DHT22;4446;50.876;4.736;2023-08-08T10:06:36;19.90;99.90
8820;DHT22;4446;50.876;4.736;2023-08-08T10:09:04;19.80;99.90
8820;DHT22;4446;50.876;4.736;2023-08-08T10:11:32;19.90;99.90
8820;DHT22;4446;50.876;4.736;2023-08-08T10:14:02;20.10;99.90
8820;DHT22;4446;50.876;4.736;2023-08-08T10:16:31;20.20;99.90
8820;DHT22;4446;50.876;4.736;2023-08-08T10:19:01;20.20;99.90
8820;DHT22;4446;50.876;4.736;2023-08-08T10:21:33;20.00;99.90
8820;DHT22;4446;50.876;4.736;2023-08-08T10:24:04;19.90;99.90
8820;DHT22;4446;50.876;4.736;2023-08-08T10:26:32;19.60;99.90
8820;DHT22;4446;50.876;4.736;2023-08-08T10:29:00;19.50;99.90
8820;DHT22;4446;50.876;4.736;2023-08-08T10:31:33;19.60;99.90
8820;DHT22;4446;50.876;4.736;2023-08-08T10:34:04;19.50;99.90
8820;DHT22;4446;50.876;4.736;2023-08-08T10:36:59;19.50;99.90
8820;DHT22;4446;50.876;4.736;2023-08-08T10:39:26;19.50;99.90
8820;DHT22;4446;50.876;4.736;2023-08-08T10:41:53;19.30;99.90
8820;DHT22;4446;50.876;4.736;2023-08-08T10:44:24;19.20;99.90
8820;DHT22;4446;50.876;4.736;2023-08-08T10:46:52;19.20;99.90
8820;DHT22;4446;50.876;4.736;2023-08-08T10:49:22;19.10;99.90
8820;DHT22;4446;50.876;4.736;2023-08-08T10:51:49;19.10;99.90
8820;DHT22;4446;50.876;4.736;2023-08-08T10:54:19;19.10;99.90
8820;DHT22;4446;50.876;4.736;2023-08-08T10:56:50;19.20;99.90
8820;DHT22;4446;50.876;4.736;2023-08-08T10:59:18;19.10;99.90
8820;DHT22;4446;50.876;4.736;2023-08-08T11:01:48;19.10;99.90
8820;DHT22;4446;50.876;4.736;2023-08-08T11:04:20;19.00;99.90
8820;DHT22;4446;50.876;4.736;2023-08-08T11:06:49;18.90;99.90
8820;DHT22;4446;50.876;4.736;2023-08-08T11:09:17;18.90;99.90
8820;DHT22;4446;50.876;4.736;2023-08-08T11:11:45;19.10;99.90
8820;DHT22;4446;50.876;4.736;2023-08-08T11:14:14;19.00;99.90
8820;DHT22;4446;50.876;4.736;2023-08-08T11:16:41;19.00;99.90
8820;DHT22;4446;50.876;4.736;2023-08-08T11:19:09;18.90;99.90
8820;DHT22;4446;50.876;4.736;2023-08-08T11:21:39;18.80;99.90
8820;DHT22;4446;50.876;4.736;2023-08-08T11:24:08;18.70;99.90
8820;DHT22;4446;50.876;4.736;2023-08-08T11:26:37;18.70;99.90
8820;DHT22;4446;50.876;4.736;2023-08-08T11:29:05;18.70;99.90
8820;DHT22;4446;50.876;4.736;2023-08-08T11:31:34;18.70;99.90
8820;DHT22;4446;50.876;4.736;2023-08-08T11:34:01;18.70;99.90
8820;DHT22;4446;50.876;4.736;2023-08-08T11:36:30;18.80;99.90
8820;DHT22;4446;50.876;4.736;2023-08-08T11:39:00;19.00;99.90
8820;DHT22;4446;50.876;4.736;2023-08-08T11:41:30;19.20;99.90
8820;DHT22;4446;50.876;4.736;2023-08-08T11:43:58;19.40;99.90
8820;DHT22;4446;50.876;4.736;2023-08-08T11:46:25;19.60;99.90
8820;DHT22;4446;50.876;4.736;2023-08-08T11:48:53;19.90;99.90
8820;DHT22;4446;50.876;4.736;2023-08-08T11:51:20;20.20;99.90
8820;DHT22;4446;50.876;4.736;2023-08-08T11:53:49;20.50;99.90
8820;DHT22;4446;50.876;4.736;2023-08-08T11:56:18;20.70;99.90
8820;DHT22;4446;50.876;4.736;2023-08-08T11:58:49;20.90;99.90
8820;DHT22;4446;50.876;4.736;2023-08-08T12:01:20;21.10;99.90
8820;DHT22;4446;50.876;4.736;2023-08-08T12:03:47;21.10;99.90
8820;DHT22;4446;50.876;4.736;2023-08-08T12:06:15;21.20;99.90
8820;DHT22;4446;50.876;4.736;2023-08-08T12:08:43;21.30;99.90
8820;DHT22;4446;50.876;4.736;2023-08-08T12:11:11;21.40;99.90
8820;DHT22;4446;50.876;4.736;2023-08-08T12:13:40;21.20;99.90
8820;DHT22;4446;50.876;4.736;2023-08-08T12:16:09;21.20;99.90
8820;DHT22;4446;50.876;4.736;2023-08-08T12:18:37;21.20;99.90
8820;DHT22;4446;50.876;4.736;2023-08-08T12:21:05;21.30;99.90
8820;DHT22;4446;50.876;4.736;2023-08-08T12:23:32;21.20;99.90
8820;DHT22;4446;50.876;4.736;2023-08-08T12:26:00;20.90;99.90
8820;DHT22;4446;50.876;4.736;2023-08-08T12:28:29;20.80;99.90
8820;DHT22;4446;50.876;4.736;2023-08-08T12:30:56;20.70;99.90
8820;DHT22;4446;50.876;4.736;2023-08-08T12:33:24;20.60;99.90
8820;DHT22;4446;50.876;4.736;2023-08-08T12:35:52;20.60;99.90
8820;DHT22;4446;50.876;4.736;2023-08-08T12:38:19;20.90;99.90
8820;DHT22;4446;50.876;4.736;2023-08-08T12:40:46;21.30;99.90
8820;DHT22;4446;50.876;4.736;2023-08-08T12:43:13;21.50;99.90
8820;DHT22;4446;50.876;4.736;2023-08-08T12:45:43;21.40;99.90
8820;DHT22;4446;50.876;4.736;2023-08-08T12:48:10;21.60;99.90
8820;DHT22;4446;50.876;4.736;2023-08-08T12:50:39;21.80;99.90
8820;DHT22;4446;50.876;4.736;2023-08-08T12:53:06;21.80;99.90
8820;DHT22;4446;50.876;4.736;2023-08-08T12:55:33;22.10;99.90
8820;DHT22;4446;50.876;4.736;2023-08-08T12:58:01;22.20;99.90
8820;DHT22;4446;50.876;4.736;2023-08-08T13:00:29;22.30;99.90
8820;DHT22;4446;50.876;4.736;2023-08-08T13:03:00;22.10;99.90
8820;DHT22;4446;50.876;4.736;2023-08-08T13:05:27;22.10;99.90
8820;DHT22;4446;50.876;4.736;2023-08-08T13:07:55;22.10;99.90
8820;DHT22;4446;50.876;4.736;2023-08-08T13:10:22;22.10;99.90
8820;DHT22;4446;50.876;4.736;2023-08-08T13:12:49;22.50;99.90
8820;DHT22;4446;50.876;4.736;2023-08-08T13:15:17;22.70;99.90
8820;DHT22;4446;50.876;4.736;2023-08-08T13:17:45;22.80;99.90
8820;DHT22;4446;50.876;4.736;2023-08-08T13:20:12;23.00;99.90
8820;DHT22;4446;50.876;4.736;2023-08-08T13:22:39;22.90;99.90
8820;DHT22;4446;50.876;4.736;2023-08-08T13:25:10;22.50;99.90
8820;DHT22;4446;50.876;4.736;2023-08-08T13:27:37;22.20;99.90
8820;DHT22;4446;50.876;4.736;2023-08-08T13:30:05;22.30;99.90
8820;DHT22;4446;50.876;4.736;2023-08-08T13:32:32;22.30;99.90
8820;DHT22;4446;50.876;4.736;2023-08-08T13:34:59;22.10;99.90
8820;DHT22;4446;50.876;4.736;2023-08-08T13:37:27;21.90;99.90
8820;DHT22;4446;50.876;4.736;2023-08-08T13:39:54;21.70;99.90
8820;DHT22;4446;50.876;4.736;2023-08-08T13:42:22;21.50;99.90
8820;DHT22;4446;50.876;4.736;2023-08-08T13:44:49;21.50;99.90
8820;DHT22;4446;50.876;4.736;2023-08-08T13:47:16;21.60;99.90
8820;DHT22;4446;50.876;4.736;2023-08-08T13:49:43;21.70;99.90
8820;DHT22;4446;50.876;4.736;2023-08-08T13:52:10;22.10;99.90
8820;DHT22;4446;50.876;4.736;2023-08-08T13:54:38;22.60;99.90
8820;DHT22;4446;50.876;4.736;2023-08-08T13:57:05;22.50;99.90
8820;DHT22;4446;50.876;4.736;2023-08-08T13:59:34;22.80;99.90
8820;DHT22;4446;50.876;4.736;2023-08-08T14:02:01;23.50;99.90
8820;DHT22;4446;50.876;4.736;2023-08-08T14:04:28;23.80;99.90
8820;DHT22;4446;50.876;4.736;2023-08-08T14:06:55;24.00;99.90
8820;DHT22;4446;50.876;4.736;2023-08-08T14:09:22;23.70;99.90
8820;DHT22;4446;50.876;4.736;2023-08-08T14:11:49;23.20;99.90
8820;DHT22;4446;50.876;4.736;2023-08-08T14:14:16;23.00;99.90
8820;DHT22;4446;50.876;4.736;2023-08-08T14:16:45;22.70;99.90
8820;DHT22;4446;50.876;4.736;2023-08-08T14:19:12;22.60;99.90
8820;DHT22;4446;50.876;4.736;2023-08-08T14:21:39;22.40;99.90
8820;DHT22;4446;50.876;4.736;2023-08-08T14:24:07;22.40;99.90
8820;DHT22;4446;50.876;4.736;2023-08-08T14:26:34;22.50;99.90
8820;DHT22;4446;50.876;4.736;2023-08-08T14:29:01;22.40;99.90
8820;DHT22;4446;50.876;4.736;2023-08-08T14:31:28;22.10;99.90
8820;DHT22;4446;50.876;4.736;2023-08-08T14:33:57;22.10;99.90
8820;DHT22;4446;50.876;4.736;2023-08-08T14:36:24;21.80;99.90
8820;DHT22;4446;50.876;4.736;2023-08-08T14:38:51;21.70;99.90
8820;DHT22;4446;50.876;4.736;2023-08-08T14:41:21;21.80;99.90
8820;DHT22;4446;50.876;4.736;2023-08-08T14:43:48;21.80;99.90
8820;DHT22;4446;50.876;4.736;2023-08-08T14:46:15;21.70;99.90
8820;DHT22;4446;50.876;4.736;2023-08-08T14:48:43;21.70;99.90
8820;DHT22;4446;50.876;4.736;2023-08-08T14:51:11;21.60;99.90
8820;DHT22;4446;50.876;4.736;2023-08-08T14:53:42;21.50;99.90
8820;DHT22;4446;50.876;4.736;2023-08-08T14:56:09;21.40;99.90
8820;DHT22;4446;50.876;4.736;2023-08-08T14:58:36;21.20;99.90
8820;DHT22;4446;50.876;4.736;2023-08-08T15:01:03;20.90;99.90
8820;DHT22;4446;50.876;4.736;2023-08-08T15:03:30;20.70;99.90
8820;DHT22;4446;50.876;4.736;2023-08-08T15:05:57;20.50;99.90
8820;DHT22;4446;50.876;4.736;2023-08-08T15:08:25;20.40;99.90
8820;DHT22;4446;50.876;4.736;2023-08-08T15:10:52;20.20;99.90
8820;DHT22;4446;50.876;4.736;2023-08-08T15:13:21;20.20;99.90
8820;DHT22;4446;50.876;4.736;2023-08-08T15:15:48;20.10;99.90
8820;DHT22;4446;50.876;4.736;2023-08-08T15:18:15;20.10;99.90
8820;DHT22;4446;50.876;4.736;2023-08-08T15:20:42;19.90;99.90
8820;DHT22;4446;50.876;4.736;2023-08-08T15:23:09;19.90;99.90
8820;DHT22;4446;50.876;4.736;2023-08-08T15:25:38;19.80;99.90
8820;DHT22;4446;50.876;4.736;2023-08-08T15:28:07;19.80;99.90
8820;DHT22;4446;50.876;4.736;2023-08-08T15:30:34;19.80;99.90
8820;DHT22;4446;50.876;4.736;2023-08-08T15:33:02;19.80;99.90
8820;DHT22;4446;50.876;4.736;2023-08-08T15:35:29;19.80;99.90
8820;DHT22;4446;50.876;4.736;2023-08-08T15:37:56;19.80;99.90
8820;DHT22;4446;50.876;4.736;2023-08-08T15:40:24;19.80;99.90
8820;DHT22;4446;50.876;4.736;2023-08-08T15:42:53;19.70;99.90
8820;DHT22;4446;50.876;4.736;2023-08-08T15:45:20;19.80;99.90
8820;DHT22;4446;50.876;4.736;2023-08-08T15:47:47;19.70;99.90
8820;DHT22;4446;50.876;4.736;2023-08-08T15:50:14;19.70;99.90
8820;DHT22;4446;50.876;4.736;2023-08-08T15:52:41;19.50;99.90
8820;DHT22;4446;50.876;4.736;2023-08-08T15:55:08;19.40;99.90
8820;DHT22;4446;50.876;4.736;2023-08-08T15:57:36;19.40;99.90
8820;DHT22;4446;50.876;4.736;2023-08-08T16:00:05;19.20;99.90
8820;DHT22;4446;50.876;4.736;2023-08-08T16:02:36;19.20;99.90
8820;DHT22;4446;50.876;4.736;2023-08-08T16:05:03;19.30;99.90